createdAt,value
2022-08-18T00:01:51.576Z,4.30
2022-08-18T00:04:35.758Z,4.43
2022-08-18T00:07:02.585Z,3.95
2022-08-18T00:09:32.159Z,3.53
2022-08-18T00:12:01.995Z,3.88
2022-08-18T00:14:28.476Z,3.65
2022-08-18T00:16:54.998Z,4.07
2022-08-18T00:19:43.630Z,4.10
2022-08-18T00:22:14.601Z,3.92
2022-08-18T00:24:48.426Z,3.45
2022-08-18T00:27:19.503Z,4.07
2022-08-18T00:29:48.569Z,3.85
2022-08-18T00:32:17.927Z,3.90
2022-08-18T00:34:44.555Z,3.72
2022-08-18T00:37:10.990Z,3.85
2022-08-18T00:39:40.616Z,3.60
2022-08-18T00:42:28.684Z,4.10
2022-08-18T00:45:03.832Z,3.85
2022-08-18T00:47:36.448Z,3.78
2022-08-18T00:50:15.391Z,4.30
2022-08-18T00:52:45.193Z,4.70
2022-08-18T00:55:11.653Z,4.57
2022-08-18T00:57:38.098Z,4.38
2022-08-18T01:00:11.788Z,4.18
2022-08-18T01:02:45.198Z,4.78
2022-08-18T01:05:20.896Z,4.03
2022-08-18T01:07:48.773Z,4.30
2022-08-18T01:10:19.290Z,4.18
2022-08-18T01:12:50.440Z,4.32
2022-08-18T01:15:29.398Z,4.82
2022-08-18T01:18:19.279Z,4.05
2022-08-18T01:21:11.273Z,4.72
2022-08-18T01:23:38.371Z,4.38
2022-08-18T01:26:04.946Z,3.92
2022-08-18T01:28:34.051Z,4.43
2022-08-18T01:31:01.803Z,4.45
2022-08-18T01:33:32.554Z,4.20
2022-08-18T01:36:03.586Z,4.30
2022-08-18T01:38:32.132Z,4.63
2022-08-18T01:41:26.840Z,5.05
2022-08-18T01:43:46.809Z,4.75
2022-08-18T01:46:20.234Z,4.82
2022-08-18T01:48:48.699Z,4.85
2022-08-18T01:51:15.890Z,4.75
2022-08-18T01:53:42.408Z,4.50
2022-08-18T01:56:09.187Z,5.00
2022-08-18T01:58:36.542Z,4.53
2022-08-18T02:01:03.836Z,4.60
2022-08-18T02:03:36.639Z,5.07
2022-08-18T02:06:07.153Z,4.25
2022-08-18T02:08:34.692Z,4.30
2022-08-18T02:11:01.515Z,4.68
2022-08-18T02:13:28.011Z,4.30
2022-08-18T02:15:54.457Z,4.68
2022-08-18T02:18:47.257Z,5.25
2022-08-18T02:21:19.279Z,4.40
2022-08-18T02:23:52.752Z,4.40
2022-08-18T02:26:20.700Z,4.90
2022-08-18T02:28:47.258Z,4.97
2022-08-18T02:31:16.788Z,5.38
2022-08-18T02:33:51.642Z,4.90
2022-08-18T02:36:19.628Z,4.80
2022-08-18T02:38:54.876Z,4.65
2022-08-18T02:41:29.374Z,4.43
2022-08-18T02:43:56.559Z,5.40
2022-08-18T02:46:23.488Z,5.05
2022-08-18T02:48:52.220Z,5.13
2022-08-18T02:51:18.986Z,4.72
2022-08-18T02:53:46.892Z,4.68
2022-08-18T02:56:41.639Z,4.22
2022-08-18T02:59:20.031Z,4.57
2022-08-18T03:01:48.877Z,5.07
2022-08-18T03:04:21.119Z,4.18
2022-08-18T03:06:49.475Z,4.53
2022-08-18T03:09:17.579Z,4.35
2022-08-18T03:11:44.990Z,4.85
2022-08-18T03:14:11.848Z,4.65
2022-08-18T03:16:52.849Z,4.82
2022-08-18T03:19:22.801Z,4.82
2022-08-18T03:21:49.230Z,4.53
2022-08-18T03:24:22.494Z,4.68
2022-08-18T03:26:49.962Z,3.85
2022-08-18T03:29:16.584Z,4.28
2022-08-18T03:31:43.555Z,4.88
2022-08-18T03:34:10.098Z,4.20
2022-08-18T03:36:37.023Z,4.82
2022-08-18T03:39:09.517Z,4.97
2022-08-18T03:41:57.655Z,6.15
2022-08-18T03:44:25.086Z,5.15
2022-08-18T03:46:52.060Z,4.68
2022-08-18T03:49:20.360Z,5.63
2022-08-18T03:51:47.433Z,6.00
2022-08-18T03:54:16.423Z,6.03
2022-08-18T03:56:43.997Z,5.85
2022-08-18T03:59:14.612Z,5.70
2022-08-18T04:01:42.170Z,5.80
2022-08-18T04:04:11.679Z,5.55
2022-08-18T04:06:45.218Z,5.30
2022-08-18T04:09:14.697Z,6.07
2022-08-18T04:11:44.964Z,6.40
2022-08-18T04:14:13.373Z,6.63
2022-08-18T04:16:40.611Z,6.75
2022-08-18T04:19:09.086Z,5.88
2022-08-18T04:21:39.393Z,7.05
2022-08-18T04:24:07.373Z,7.95
2022-08-18T04:26:36.709Z,8.27
2022-08-18T04:29:04.432Z,8.65
2022-08-18T04:31:31.413Z,8.93
2022-08-18T04:33:59.488Z,8.50
2022-08-18T04:36:27.097Z,8.30
2022-08-18T04:38:56.375Z,10.20
2022-08-18T04:41:26.223Z,11.23
2022-08-18T04:43:54.444Z,13.40
2022-08-18T04:46:24.074Z,14.60
2022-08-18T04:48:50.915Z,14.25
2022-08-18T04:52:37.601Z,14.45
2022-08-18T04:54:06.207Z,15.32
2022-08-18T04:56:35.240Z,18.98
2022-08-18T04:59:07.013Z,16.67
2022-08-18T05:01:39.356Z,18.83
2022-08-18T05:04:06.157Z,18.00
2022-08-18T05:06:32.940Z,18.17
2022-08-18T05:09:01.926Z,19.02
2022-08-18T05:11:31.589Z,19.25
2022-08-18T05:13:58.135Z,19.35
2022-08-18T05:16:27.855Z,20.17
2022-08-18T05:18:54.736Z,18.15
2022-08-18T05:21:24.388Z,18.45
2022-08-18T05:23:51.232Z,18.10
2022-08-18T05:26:18.703Z,16.80
2022-08-18T05:28:46.094Z,18.27
2022-08-18T05:31:19.530Z,16.92
2022-08-18T05:33:46.663Z,16.45
2022-08-18T05:36:25.092Z,16.10
2022-08-18T05:39:19.354Z,15.23
2022-08-18T05:41:55.791Z,14.60
2022-08-18T05:44:26.013Z,13.93
2022-08-18T05:46:54.130Z,13.77
2022-08-18T05:49:21.821Z,13.95
2022-08-18T05:51:51.964Z,16.13
2022-08-18T05:54:37.946Z,14.88
2022-08-18T05:57:10.160Z,14.43
2022-08-18T05:59:39.125Z,14.60
2022-08-18T06:02:16.310Z,15.13
2022-08-18T06:04:49.094Z,12.48
2022-08-18T06:07:19.102Z,15.52
2022-08-18T06:09:50.678Z,13.63
2022-08-18T06:12:46.640Z,14.35
2022-08-18T06:15:25.764Z,13.70
2022-08-18T06:18:04.753Z,11.35
2022-08-18T06:20:45.901Z,13.73
2022-08-18T06:23:25.947Z,13.52
2022-08-18T06:26:16.913Z,12.90
2022-08-18T06:28:46.585Z,11.13
2022-08-18T06:31:24.753Z,11.77
2022-08-18T06:34:03.602Z,10.75
2022-08-18T06:36:38.989Z,10.20
2022-08-18T06:39:27.062Z,9.93
2022-08-18T06:41:54.686Z,12.45
2022-08-18T06:44:28.631Z,11.63
2022-08-18T06:47:10.858Z,11.30
2022-08-18T06:49:51.289Z,10.43
2022-08-18T06:52:38.699Z,11.82
2022-08-18T06:55:09.094Z,10.68
2022-08-18T06:57:52.921Z,11.18
2022-08-18T07:00:19.472Z,8.70
2022-08-18T07:02:50.993Z,9.10
2022-08-18T07:05:21.971Z,10.15
2022-08-18T07:08:04.377Z,10.27
2022-08-18T07:10:43.779Z,10.23
2022-08-18T07:13:13.147Z,9.90
2022-08-18T07:15:40.180Z,9.90
2022-08-18T07:18:08.353Z,9.50
2022-08-18T07:20:46.440Z,10.80
2022-08-18T07:23:28.180Z,10.18
2022-08-18T07:26:08.660Z,9.10
2022-08-18T07:28:50.176Z,9.73
2022-08-18T07:31:37.746Z,10.07
2022-08-18T07:34:12.449Z,10.18
2022-08-18T07:36:50.638Z,11.07
2022-08-18T07:39:27.738Z,11.88
2022-08-18T07:42:33.075Z,9.23
2022-08-18T07:45:12.653Z,10.88
2022-08-18T07:47:48.641Z,10.85
2022-08-18T07:50:26.988Z,9.88
2022-08-18T07:53:29.774Z,10.63
2022-08-18T07:56:03.195Z,9.68
2022-08-18T07:58:36.295Z,10.15
2022-08-18T08:01:13.604Z,10.57
2022-08-18T08:04:04.826Z,10.13
2022-08-18T08:06:55.407Z,9.65
2022-08-18T08:09:42.552Z,9.52
2022-08-18T08:12:31.561Z,8.60
2022-08-18T08:15:08.159Z,8.52
2022-08-18T08:17:40.378Z,10.27
2022-08-18T08:20:13.824Z,10.82
2022-08-18T08:22:53.502Z,9.02
2022-08-18T08:25:46.482Z,10.00
2022-08-18T08:28:28.643Z,9.30
2022-08-18T08:31:33.146Z,9.73
2022-08-18T08:34:12.138Z,9.18
2022-08-18T08:36:44.949Z,10.27
2022-08-18T08:39:19.257Z,11.15
2022-08-18T08:41:50.651Z,11.18
2022-08-18T08:44:25.051Z,9.10
2022-08-18T08:46:56.917Z,11.00
2022-08-18T08:49:53.165Z,10.63
2022-08-18T08:52:40.684Z,9.95
2022-08-18T08:55:12.429Z,9.80
2022-08-18T08:57:56.125Z,8.68
2022-08-18T09:00:22.645Z,8.88
2022-08-18T09:03:06.742Z,8.88
2022-08-18T09:06:08.475Z,8.40
2022-08-18T09:09:06.819Z,10.05
2022-08-18T09:11:49.292Z,8.07
2022-08-18T09:14:47.562Z,9.48
2022-08-18T09:17:35.385Z,9.73
2022-08-18T09:20:17.476Z,9.25
2022-08-18T09:22:57.096Z,8.18
2022-08-18T09:25:39.188Z,7.70
2022-08-18T09:28:14.660Z,7.07
2022-08-18T09:31:08.612Z,6.70
2022-08-18T09:33:38.462Z,6.30
2022-08-18T09:36:25.960Z,6.13
2022-08-18T09:39:20.612Z,6.50
2022-08-18T09:41:54.991Z,6.68
2022-08-18T09:44:48.180Z,6.65
2022-08-18T09:47:22.002Z,5.97
2022-08-18T09:50:27.522Z,6.28
2022-08-18T09:52:59.166Z,6.57
2022-08-18T09:55:30.809Z,6.88
2022-08-18T09:58:22.941Z,5.95
2022-08-18T10:01:19.577Z,7.05
2022-08-18T10:04:14.751Z,5.57
2022-08-18T10:06:43.014Z,6.28
2022-08-18T10:09:36.517Z,6.25
2022-08-18T10:12:15.873Z,6.63
2022-08-18T10:15:34.462Z,5.60
2022-08-18T10:18:44.869Z,5.78
2022-08-18T10:21:18.830Z,6.00
2022-08-18T10:23:58.171Z,5.40
2022-08-18T10:26:37.328Z,4.95
2022-08-18T10:29:09.619Z,5.25
2022-08-18T10:31:54.817Z,5.75
2022-08-18T10:34:52.177Z,5.90
2022-08-18T10:37:26.491Z,5.13
2022-08-18T10:39:59.325Z,5.70
2022-08-18T10:42:31.478Z,5.82
2022-08-18T10:45:22.111Z,6.05
2022-08-18T10:48:29.286Z,4.80
2022-08-18T10:51:28.236Z,5.15
2022-08-18T10:54:19.697Z,5.40
2022-08-18T10:56:52.832Z,5.07
2022-08-18T10:59:50.690Z,5.43
2022-08-18T11:02:23.618Z,5.78
2022-08-18T11:04:59.223Z,5.47
2022-08-18T11:07:29.175Z,5.63
2022-08-18T11:10:27.890Z,5.47
2022-08-18T11:13:23.940Z,6.35
2022-08-18T11:16:13.695Z,5.85
2022-08-18T11:18:43.114Z,6.03
2022-08-18T11:21:41.967Z,5.03
2022-08-18T11:24:13.452Z,5.03
2022-08-18T11:26:52.823Z,6.22
2022-08-18T11:29:24.737Z,6.35
2022-08-18T11:31:59.638Z,6.50
2022-08-18T11:34:34.821Z,6.20
2022-08-18T11:37:14.437Z,5.88
2022-08-18T11:39:49.372Z,5.53
2022-08-18T11:42:25.119Z,6.35
2022-08-18T11:44:54.878Z,6.30
2022-08-18T11:50:12.610Z,6.57
2022-08-18T11:52:53.644Z,7.03
2022-08-18T11:55:29.621Z,5.93
2022-08-18T11:57:59.138Z,6.90
2022-08-18T12:00:48.802Z,6.05
2022-08-18T12:03:28.404Z,6.15
2022-08-18T12:05:58.995Z,7.93
2022-08-18T12:08:56.759Z,7.15
2022-08-18T12:11:27.122Z,6.10
2022-08-18T12:14:01.850Z,6.35
2022-08-18T12:16:48.450Z,6.68
2022-08-18T12:19:17.463Z,6.55
2022-08-18T12:21:51.074Z,5.97
2022-08-18T12:24:26.394Z,6.30
2022-08-18T12:27:02.219Z,6.22
2022-08-18T12:29:47.039Z,6.25
2022-08-18T12:32:18.135Z,5.50
2022-08-18T12:35:05.293Z,6.20
2022-08-18T12:37:58.369Z,5.93
2022-08-18T12:40:20.941Z,5.10
2022-08-18T12:42:49.463Z,5.22
2022-08-18T12:45:16.445Z,5.25
2022-08-18T12:47:42.912Z,5.40
2022-08-18T12:50:09.537Z,4.75
2022-08-18T12:52:37.075Z,4.82
2022-08-18T12:55:08.728Z,4.75
2022-08-18T12:57:53.367Z,5.57
2022-08-18T13:00:21.161Z,6.05
2022-08-18T13:02:54.869Z,5.60
2022-08-18T13:05:26.550Z,5.97
2022-08-18T13:08:04.514Z,4.90
2022-08-18T13:10:42.981Z,5.38
2022-08-18T13:13:12.034Z,5.70
2022-08-18T13:15:38.674Z,5.90
2022-08-18T13:18:05.284Z,5.55
2022-08-18T13:20:31.822Z,5.47
2022-08-18T13:22:58.293Z,5.60
2022-08-18T13:25:32.293Z,5.47
2022-08-18T13:28:06.087Z,5.43
2022-08-18T13:30:33.117Z,5.35
2022-08-18T13:33:34.679Z,5.38
2022-08-18T13:35:52.054Z,5.57
2022-08-18T13:38:26.090Z,5.55
2022-08-18T13:40:57.679Z,6.22
2022-08-18T13:43:31.988Z,5.50
2022-08-18T13:45:59.818Z,5.93
2022-08-18T13:48:28.330Z,5.25
2022-08-18T13:50:58.200Z,4.93
2022-08-18T13:53:27.648Z,5.10
2022-08-18T13:55:54.789Z,6.55
2022-08-18T13:58:21.396Z,5.22
2022-08-18T14:01:05.723Z,5.70
2022-08-18T14:03:47.347Z,6.45
2022-08-18T14:06:14.807Z,6.70
2022-08-18T14:08:41.390Z,6.68
2022-08-18T14:11:09.474Z,6.05
2022-08-18T14:13:38.281Z,5.65
2022-08-18T14:16:18.937Z,6.13
2022-08-18T14:19:10.256Z,5.70
2022-08-18T14:22:00.268Z,5.88
2022-08-18T14:24:48.616Z,6.85
2022-08-18T14:27:16.175Z,5.78
2022-08-18T14:29:45.458Z,5.93
2022-08-18T14:32:18.047Z,5.13
2022-08-18T14:34:50.808Z,5.38
2022-08-18T14:37:17.791Z,5.50
2022-08-18T14:39:48.069Z,4.85
2022-08-18T14:42:19.010Z,5.18
2022-08-18T14:44:45.789Z,5.07
2022-08-18T14:47:12.362Z,5.53
2022-08-18T14:49:48.166Z,5.15
2022-08-18T14:52:14.724Z,5.95
2022-08-18T14:54:41.283Z,6.07
2022-08-18T14:57:12.856Z,5.72
2022-08-18T14:59:41.048Z,5.40
2022-08-18T15:02:11.256Z,5.50
2022-08-18T15:04:55.788Z,5.70
2022-08-18T15:07:24.421Z,5.25
2022-08-18T15:09:50.853Z,5.63
2022-08-18T15:12:37.517Z,5.50
2022-08-18T15:15:08.453Z,5.35
2022-08-18T15:17:38.263Z,5.78
2022-08-18T15:20:06.574Z,5.68
2022-08-18T15:22:56.822Z,5.85
2022-08-18T15:25:41.909Z,5.45
2022-08-18T15:28:16.383Z,5.57
2022-08-18T15:30:44.855Z,5.18
2022-08-18T15:33:15.441Z,5.28
2022-08-18T15:35:44.394Z,5.70
2022-08-18T15:38:14.807Z,4.65
2022-08-18T15:40:49.445Z,5.30
2022-08-18T15:43:25.286Z,4.90
2022-08-18T15:45:57.756Z,5.53
2022-08-18T15:48:26.422Z,5.80
2022-08-18T15:50:53.085Z,5.72
2022-08-18T15:53:22.531Z,5.40
2022-08-18T15:55:50.298Z,5.97
2022-08-18T15:58:22.415Z,5.60
2022-08-18T16:00:53.099Z,5.57
2022-08-18T16:03:21.190Z,5.30
2022-08-18T16:05:48.063Z,5.28
2022-08-18T16:08:18.368Z,5.38
2022-08-18T16:10:45.191Z,5.47
2022-08-18T16:13:14.422Z,5.53
2022-08-18T16:15:42.320Z,5.28
2022-08-18T16:18:10.653Z,5.45
2022-08-18T16:20:37.710Z,4.90
2022-08-18T16:23:05.378Z,6.07
2022-08-18T16:25:32.001Z,5.30
2022-08-18T16:27:59.680Z,5.20
2022-08-18T16:30:27.818Z,5.60
2022-08-18T16:32:54.516Z,6.13
2022-08-18T16:35:22.315Z,5.75
2022-08-18T16:37:49.712Z,6.03
2022-08-18T16:40:18.823Z,6.05
2022-08-18T16:42:46.105Z,5.57
2022-08-18T16:45:14.698Z,5.47
2022-08-18T16:47:41.397Z,5.15
2022-08-18T16:50:10.733Z,5.43
2022-08-18T16:52:37.217Z,4.95
2022-08-18T16:55:04.552Z,4.82
2022-08-18T16:57:54.794Z,5.13
2022-08-18T17:00:41.386Z,4.97
2022-08-18T17:03:26.783Z,5.43
2022-08-18T17:06:05.086Z,5.95
2022-08-18T17:08:34.087Z,5.50
2022-08-18T17:11:06.014Z,5.35
2022-08-18T17:13:33.256Z,4.88
2022-08-18T17:15:59.711Z,5.75
2022-08-18T17:18:27.162Z,5.03
2022-08-18T17:20:55.524Z,5.13
2022-08-18T17:23:22.369Z,4.97
2022-08-18T17:25:49.505Z,5.50
2022-08-18T17:28:19.149Z,4.78
2022-08-18T17:30:51.331Z,5.30
2022-08-18T17:33:32.798Z,4.90
2022-08-18T17:36:03.717Z,5.70
2022-08-18T17:38:54.517Z,5.15
2022-08-18T17:41:21.252Z,5.03
2022-08-18T17:43:48.123Z,4.88
2022-08-18T17:46:27.484Z,4.90
2022-08-18T17:49:03.430Z,5.38
2022-08-18T17:51:35.836Z,5.80
2022-08-18T17:54:06.325Z,5.78
2022-08-18T17:56:44.738Z,5.57
2022-08-18T17:59:46.531Z,5.93
2022-08-18T18:02:29.154Z,5.82
2022-08-18T18:04:59.611Z,5.72
2022-08-18T18:07:32.772Z,5.28
2022-08-18T18:10:04.881Z,5.38
2022-08-18T18:12:33.744Z,5.45
2022-08-18T18:15:02.069Z,5.68
2022-08-18T18:17:31.061Z,5.18
2022-08-18T18:20:15.579Z,4.90
2022-08-18T18:22:44.028Z,5.25
2022-08-18T18:25:12.707Z,5.10
2022-08-18T18:27:47.202Z,5.25
2022-08-18T18:30:27.817Z,4.22
2022-08-18T18:33:03.549Z,5.65
2022-08-18T18:35:54.139Z,4.82
2022-08-18T18:38:31.871Z,5.40
2022-08-18T18:41:13.543Z,4.93
2022-08-18T18:43:43.486Z,5.68
2022-08-18T18:46:22.847Z,5.07
2022-08-18T18:49:03.750Z,5.07
2022-08-18T18:51:43.741Z,4.72
2022-08-18T18:54:49.790Z,5.55
2022-08-18T18:57:40.894Z,4.75
2022-08-18T19:00:21.105Z,4.80
2022-08-18T19:03:07.002Z,5.13
2022-08-18T19:05:55.270Z,4.60
2022-08-18T19:08:35.884Z,5.15
2022-08-18T19:11:09.069Z,4.53
2022-08-18T19:13:41.002Z,5.35
2022-08-18T19:16:23.201Z,4.38
2022-08-18T19:18:57.789Z,4.60
2022-08-18T19:22:04.739Z,4.90
2022-08-18T19:24:29.263Z,4.80
2022-08-18T19:26:59.943Z,5.00
2022-08-18T19:29:30.231Z,4.82
2022-08-18T19:32:11.426Z,4.63
2022-08-18T19:34:51.567Z,4.85
2022-08-18T19:37:57.325Z,4.78
2022-08-18T19:40:40.312Z,4.43
2022-08-18T19:43:12.789Z,5.13
2022-08-18T19:46:01.300Z,5.30
2022-08-18T19:48:34.815Z,4.93
2022-08-18T19:51:06.834Z,5.40
2022-08-18T19:53:58.902Z,5.55
2022-08-18T19:56:33.897Z,5.60
2022-08-18T19:59:23.284Z,5.50
2022-08-18T20:01:52.082Z,5.53
2022-08-18T20:04:24.521Z,6.18
2022-08-18T20:06:53.792Z,5.82
2022-08-18T20:09:27.708Z,6.60
2022-08-18T20:12:39.254Z,6.38
2022-08-18T20:15:17.425Z,5.80
2022-08-18T20:18:04.279Z,5.93
2022-08-18T20:20:40.169Z,6.13
2022-08-18T20:23:30.046Z,5.97
2022-08-18T20:25:56.478Z,6.38
2022-08-18T20:28:35.816Z,7.13
2022-08-18T20:31:14.256Z,6.68
2022-08-18T20:33:46.082Z,6.85
2022-08-18T20:36:19.173Z,7.35
2022-08-18T20:38:53.082Z,7.15
2022-08-18T20:41:28.696Z,7.53
2022-08-18T20:44:21.872Z,7.40
2022-08-18T20:47:36.669Z,7.20
2022-08-18T20:50:42.762Z,6.75
2022-08-18T20:53:18.969Z,7.57
2022-08-18T20:55:56.865Z,7.15
2022-08-18T20:58:27.305Z,7.70
2022-08-18T21:00:57.029Z,7.78
2022-08-18T21:03:35.550Z,7.70
2022-08-18T21:06:02.918Z,7.93
2022-08-18T21:08:31.657Z,8.38
2022-08-18T21:11:01.801Z,8.15
2022-08-18T21:13:36.116Z,7.88
2022-08-18T21:16:02.867Z,7.97
2022-08-18T21:18:29.378Z,7.57
2022-08-18T21:20:58.314Z,7.88
2022-08-18T21:23:29.684Z,8.38
2022-08-18T21:25:59.597Z,8.45
2022-08-18T21:28:28.231Z,8.63
2022-08-18T21:31:42.177Z,8.70
2022-08-18T21:33:51.015Z,9.32
2022-08-18T21:36:18.708Z,10.00
2022-08-18T21:39:05.215Z,9.77
2022-08-18T21:41:33.632Z,8.63
2022-08-18T21:44:07.169Z,9.27
2022-08-18T21:46:33.717Z,9.48
2022-08-18T21:49:02.348Z,9.77
2022-08-18T21:51:32.575Z,8.50
2022-08-18T21:53:59.909Z,8.52
2022-08-18T21:56:29.399Z,8.20
2022-08-18T21:59:08.050Z,8.10
2022-08-18T22:01:35.546Z,7.60
2022-08-18T22:04:22.325Z,8.27
2022-08-18T22:06:52.019Z,8.43
2022-08-18T22:09:41.295Z,8.00
2022-08-18T22:12:48.451Z,8.95
2022-08-18T22:15:35.758Z,8.52
2022-08-18T22:18:08.236Z,8.32
2022-08-18T22:20:59.053Z,8.23
2022-08-18T22:23:51.230Z,8.57
2022-08-18T22:26:17.566Z,9.10
2022-08-18T22:28:54.561Z,9.13
2022-08-18T22:31:23.156Z,8.75
2022-08-18T22:33:51.011Z,8.25
2022-08-18T22:36:20.650Z,8.20
2022-08-18T22:38:47.981Z,8.95
2022-08-18T22:41:15.633Z,8.32
2022-08-18T22:43:42.120Z,9.20
2022-08-18T22:46:08.665Z,9.02
2022-08-18T22:48:35.088Z,8.93
2022-08-18T22:51:01.582Z,8.10
2022-08-18T22:53:28.627Z,8.35
2022-08-18T22:55:57.295Z,9.38
2022-08-18T22:58:27.979Z,9.43
2022-08-18T23:00:58.208Z,9.63
2022-08-18T23:03:34.542Z,8.80
2022-08-18T23:06:09.550Z,9.35
2022-08-18T23:08:54.972Z,9.73
2022-08-18T23:11:23.521Z,9.68
2022-08-18T23:13:50.174Z,10.50
2022-08-18T23:16:31.954Z,10.23
2022-08-18T23:19:01.890Z,10.85
2022-08-18T23:21:34.189Z,10.70
2022-08-18T23:24:03.669Z,10.10
2022-08-18T23:26:30.589Z,10.57
2022-08-18T23:28:57.230Z,9.35
2022-08-18T23:31:23.761Z,9.82
2022-08-18T23:33:50.234Z,11.35
2022-08-18T23:36:17.747Z,11.15
2022-08-18T23:38:44.205Z,11.82
2022-08-18T23:41:13.179Z,12.27
2022-08-18T23:43:39.657Z,12.02
2022-08-18T23:46:16.763Z,12.13
2022-08-18T23:48:44.465Z,12.32
2022-08-18T23:51:10.931Z,13.15
2022-08-18T23:53:38.471Z,12.35
2022-08-18T23:56:06.110Z,12.20
2022-08-18T23:58:32.551Z,13.30
